Time;durP1;ratioP1;P1;durP2;ratioP2;P2;SDS_P1;SDS_P2;PMS_P1;PMS_P2;Temp;Humidity;BMP_temperature;BMP_pressure;BME280_temperature;BME280_humidity;BME280_pressure;Samples;Min_cycle;Max_cycle;Signal;HPM_P1;HPM_P2
2021/05/04 00:01:55;;;;;;;10.63;5.73;;;7.10;99.90;;;;;;5131215;28;20388;-80
2021/05/04 00:04:24;;;;;;;6.07;5.57;;;7.10;99.90;;;;;;5131839;28;20380;-81
2021/05/04 00:06:52;;;;;;;6.97;6.27;;;7.00;99.90;;;;;;5132650;28;20476;-80
2021/05/04 00:09:18;;;;;;;7.47;5.30;;;7.00;99.90;;;;;;5130022;28;20442;-80
2021/05/04 00:11:44;;;;;;;7.77;4.70;;;6.90;99.90;;;;;;5129896;28;20388;-80
2021/05/04 00:14:09;;;;;;;9.20;5.80;;;6.90;99.90;;;;;;5131780;28;20158;-80
2021/05/04 00:16:35;;;;;;;5.53;5.03;;;7.00;99.90;;;;;;5128594;28;20640;-80
2021/05/04 00:19:01;;;;;;;6.30;5.67;;;7.10;99.90;;;;;;5128416;28;20170;-80
2021/05/04 00:21:27;;;;;;;7.60;6.57;;;6.90;99.90;;;;;;5128192;28;20159;-80
2021/05/04 00:23:53;;;;;;;6.87;5.67;;;7.00;99.90;;;;;;5129205;28;20162;-80
2021/05/04 00:26:19;;;;;;;7.23;5.17;;;6.60;99.90;;;;;;5070508;28;20398;-80
2021/05/04 00:28:45;;;;;;;12.80;5.30;;;6.70;99.90;;;;;;5086160;28;20492;-81
2021/05/04 00:31:11;;;;;;;8.10;6.37;;;6.70;99.90;;;;;;5084905;28;20406;-81
2021/05/04 00:33:37;;;;;;;17.50;6.17;;;6.70;99.90;;;;;;5085113;28;20191;-80
2021/05/04 00:36:03;;;;;;;7.60;5.60;;;6.50;99.90;;;;;;5071970;28;20402;-80
2021/05/04 00:38:29;;;;;;;6.17;5.57;;;6.60;99.90;;;;;;5084787;28;20186;-81
2021/05/04 00:40:55;;;;;;;5.97;5.20;;;6.60;99.90;;;;;;5083413;28;20401;-81
2021/05/04 00:43:26;;;;;;;5.70;4.97;;;6.70;99.90;;;;;;5083776;28;20582;-81
2021/05/04 00:45:53;;;;;;;5.50;5.07;;;6.80;99.90;;;;;;5083946;28;20187;-81
2021/05/04 00:48:19;;;;;;;7.30;6.60;;;6.80;99.90;;;;;;5084831;28;20413;-81
2021/05/04 00:50:45;;;;;;;7.30;6.63;;;6.80;99.90;;;;;;5088346;28;20472;-78
2021/05/04 00:53:11;;;;;;;8.00;5.20;;;6.70;99.90;;;;;;5090982;28;20454;-78
2021/05/04 00:55:38;;;;;;;5.77;5.13;;;6.70;99.90;;;;;;5091752;28;20294;-77
2021/05/04 00:58:03;;;;;;;8.70;5.60;;;6.70;99.90;;;;;;5126199;28;20666;-77
2021/05/04 01:00:29;;;;;;;5.40;4.90;;;6.60;99.90;;;;;;5111929;28;20400;-81
2021/05/04 01:02:57;;;;;;;8.80;5.80;;;6.70;99.90;;;;;;5127799;28;20666;-81
2021/05/04 01:05:24;;;;;;;5.73;5.10;;;6.60;99.90;;;;;;5127849;28;20399;-81
2021/05/04 01:07:50;;;;;;;6.53;5.93;;;6.70;99.90;;;;;;5127095;28;20423;-80
2021/05/04 01:10:16;;;;;;;7.00;6.33;;;6.70;99.90;;;;;;5127915;28;20421;-81
2021/05/04 01:12:42;;;;;;;6.40;5.80;;;6.60;99.90;;;;;;5127262;28;20194;-80
2021/05/04 01:15:09;;;;;;;6.83;6.27;;;6.60;99.90;;;;;;5127103;28;20396;-80
2021/05/04 01:17:35;;;;;;;6.73;5.40;;;6.60;99.90;;;;;;5127453;28;20407;-80
2021/05/04 01:20:02;;;;;;;7.43;6.63;;;6.70;99.90;;;;;;5048092;28;20437;-80
2021/05/04 01:22:27;;;;;;;5.47;4.93;;;6.80;99.90;;;;;;5064512;28;20414;-80
2021/05/04 01:24:53;;;;;;;5.83;4.83;;;6.80;99.90;;;;;;5064503;28;20768;-80
2021/05/04 01:27:19;;;;;;;8.40;6.47;;;6.90;99.90;;;;;;5025539;28;20186;-80
2021/05/04 01:29:45;;;;;;;6.50;5.60;;;7.00;99.90;;;;;;5025402;28;20200;-80
2021/05/04 01:32:12;;;;;;;7.00;5.43;;;6.90;99.90;;;;;;5025140;28;20452;-81
2021/05/04 01:34:38;;;;;;;7.37;4.60;;;7.00;99.90;;;;;;5010330;28;20185;-80
2021/05/04 01:37:05;;;;;;;8.13;5.77;;;6.90;99.90;;;;;;5027067;28;20394;-81
2021/05/04 01:39:44;;;;;;;9.10;6.80;;;6.80;99.90;;;;;;5027595;28;20416;-81
2021/05/04 01:42:11;;;;;;;10.30;5.90;;;6.80;99.90;;;;;;4995123;28;20827;-81
2021/05/04 01:44:37;;;;;;;9.23;6.80;;;6.80;99.90;;;;;;5027539;28;20460;-80
2021/05/04 01:47:03;;;;;;;6.00;4.60;;;6.80;99.90;;;;;;5017599;28;20408;-80
2021/05/04 01:49:30;;;;;;;15.20;6.27;;;6.90;99.90;;;;;;5018264;28;20169;-79
2021/05/04 01:51:56;;;;;;;6.23;5.63;;;7.00;99.90;;;;;;5046509;28;20499;-78
2021/05/04 01:54:23;;;;;;;10.37;6.97;;;6.80;99.90;;;;;;5094563;28;20364;-78
2021/05/04 01:56:51;;;;;;;4.90;4.60;;;6.90;99.90;;;;;;5091094;28;20394;-81
2021/05/04 01:59:17;;;;;;;10.80;5.03;;;6.90;99.90;;;;;;5125594;28;20733;-80
2021/05/04 02:01:43;;;;;;;7.00;5.77;;;7.00;99.90;;;;;;5128493;28;20519;-80
2021/05/04 02:04:09;;;;;;;7.67;6.13;;;7.00;99.90;;;;;;5127676;28;20391;-80
2021/05/04 02:06:35;;;;;;;6.93;5.40;;;7.10;99.90;;;;;;5127251;28;20402;-80
2021/05/04 02:09:01;;;;;;;5.30;4.80;;;7.30;99.90;;;;;;5107386;28;20211;-81
2021/05/04 02:11:27;;;;;;;9.50;5.23;;;7.30;99.90;;;;;;5126102;28;20218;-81
2021/05/04 02:13:53;;;;;;;7.63;6.37;;;7.40;99.90;;;;;;5132334;28;20528;-79
2021/05/04 02:16:19;;;;;;;17.13;7.93;;;7.50;99.90;;;;;;5101609;28;20142;-81
2021/05/04 02:18:44;;;;;;;5.97;4.87;;;7.50;99.90;;;;;;5127019;28;20165;-81
2021/05/04 02:21:10;;;;;;;8.70;5.27;;;7.60;99.90;;;;;;5126750;28;20158;-80
2021/05/04 02:23:36;;;;;;;9.00;5.70;;;7.70;99.90;;;;;;5126722;28;20280;-80
2021/05/04 02:26:03;;;;;;;5.63;5.03;;;7.60;99.90;;;;;;5127426;28;20203;-80
2021/05/04 02:28:28;;;;;;;5.97;5.40;;;7.70;99.90;;;;;;5126208;28;20888;-80
2021/05/04 02:30:54;;;;;;;7.87;5.60;;;7.70;99.90;;;;;;5125694;28;20398;-81
2021/05/04 02:33:20;;;;;;;4.73;4.33;;;7.70;99.90;;;;;;5125641;28;20219;-80
2021/05/04 02:35:46;;;;;;;6.63;5.33;;;7.50;99.90;;;;;;5126385;28;20165;-81
2021/05/04 02:38:11;;;;;;;5.20;4.70;;;7.60;99.90;;;;;;5126201;28;20217;-80
2021/05/04 02:40:37;;;;;;;8.80;5.60;;;7.60;99.90;;;;;;5106738;28;20153;-80
2021/05/04 02:43:03;;;;;;;10.00;5.73;;;7.60;99.90;;;;;;5126367;28;20158;-81
2021/05/04 02:45:29;;;;;;;5.50;5.00;;;7.60;99.90;;;;;;5125528;28;20173;-80
2021/05/04 02:47:55;;;;;;;6.97;5.47;;;7.60;99.90;;;;;;5126374;28;20169;-80
2021/05/04 02:50:20;;;;;;;6.20;4.80;;;7.70;99.90;;;;;;5126972;28;20162;-81
2021/05/04 02:52:46;;;;;;;8.93;5.67;;;7.80;99.90;;;;;;5127354;28;20435;-81
2021/05/04 02:55:14;;;;;;;7.80;5.57;;;7.80;99.90;;;;;;5127268;28;20165;-81
2021/05/04 02:57:40;;;;;;;8.07;5.67;;;7.70;99.90;;;;;;5127529;28;20154;-80
2021/05/04 03:00:06;;;;;;;7.20;5.67;;;7.70;99.90;;;;;;5128267;28;20395;-80
2021/05/04 03:02:32;;;;;;;7.70;6.90;;;7.70;99.90;;;;;;5130630;28;20172;-79
2021/05/04 03:04:58;;;;;;;8.67;5.33;;;7.60;99.90;;;;;;5138808;28;20451;-79
2021/05/04 03:07:23;;;;;;;6.23;5.33;;;7.70;99.90;;;;;;5139192;28;20205;-78
2021/05/04 03:09:49;;;;;;;7.40;6.13;;;7.70;99.90;;;;;;5139585;28;20173;-78
2021/05/04 03:12:15;;;;;;;5.47;4.87;;;7.70;99.90;;;;;;5121466;28;20177;-78
2021/05/04 03:14:41;;;;;;;5.97;5.37;;;7.70;99.90;;;;;;5116897;28;20168;-80
2021/05/04 03:17:06;;;;;;;4.80;4.33;;;7.50;99.90;;;;;;5129910;28;20154;-81
2021/05/04 03:19:32;;;;;;;8.23;4.83;;;7.70;99.90;;;;;;5129133;28;20245;-81
2021/05/04 03:21:58;;;;;;;6.33;4.70;;;7.60;99.90;;;;;;5129239;28;20588;-80
2021/05/04 03:24:24;;;;;;;6.93;5.43;;;7.70;99.90;;;;;;5129655;28;20516;-80
2021/05/04 03:26:51;;;;;;;6.03;5.40;;;7.70;99.90;;;;;;5107028;28;20185;-81
2021/05/04 03:29:17;;;;;;;7.20;5.53;;;7.50;99.90;;;;;;5125179;28;20249;-81
2021/05/04 03:31:42;;;;;;;5.17;4.67;;;7.60;99.90;;;;;;5129570;28;20395;-81
2021/05/04 03:34:08;;;;;;;9.20;5.53;;;7.60;99.90;;;;;;5129352;28;20158;-80
2021/05/04 03:36:34;;;;;;;5.43;4.70;;;7.70;99.90;;;;;;5129415;28;20210;-81
2021/05/04 03:39:00;;;;;;;5.40;4.80;;;7.80;99.90;;;;;;5129336;28;20154;-81
2021/05/04 03:41:26;;;;;;;5.90;4.97;;;7.90;99.90;;;;;;5129569;28;20154;-81
2021/05/04 03:43:51;;;;;;;6.53;4.93;;;7.90;99.90;;;;;;5128436;28;20225;-80
2021/05/04 03:46:18;;;;;;;6.03;4.57;;;7.80;99.90;;;;;;5129049;28;20162;-81
2021/05/04 03:48:44;;;;;;;5.67;5.10;;;7.70;99.90;;;;;;5129217;28;20166;-81
2021/05/04 03:51:09;;;;;;;11.07;7.17;;;7.60;99.90;;;;;;5111041;28;20438;-81
2021/05/04 03:53:37;;;;;;;8.10;5.10;;;7.70;99.90;;;;;;5129975;28;20859;-80
2021/05/04 03:56:04;;;;;;;5.60;4.33;;;7.80;99.90;;;;;;5130339;28;20544;-81
2021/05/04 03:58:30;;;;;;;6.57;5.17;;;7.80;99.90;;;;;;5129187;28;20388;-81
2021/05/04 04:00:56;;;;;;;5.83;4.80;;;7.70;99.90;;;;;;5134235;28;20415;-79
2021/05/04 04:03:22;;;;;;;5.80;5.27;;;7.70;99.90;;;;;;5116786;28;20418;-80
2021/05/04 04:05:48;;;;;;;10.60;5.33;;;7.80;99.90;;;;;;5117063;28;20162;-78
2021/05/04 04:08:18;;;;;;;6.50;4.80;;;7.80;99.90;;;;;;5128447;28;20639;-80
2021/05/04 04:10:43;;;;;;;6.73;5.80;;;8.00;99.90;;;;;;5058803;28;20181;-81
2021/05/04 04:13:09;;;;;;;8.00;5.90;;;7.90;99.90;;;;;;5109750;28;20946;-80
2021/05/04 04:15:35;;;;;;;6.93;5.20;;;8.00;99.90;;;;;;5127434;28;20162;-80
2021/05/04 04:18:01;;;;;;;7.77;5.30;;;7.70;99.90;;;;;;5109583;28;20166;-80
2021/05/04 04:20:28;;;;;;;5.60;5.10;;;7.80;99.90;;;;;;5109571;28;20169;-80
2021/05/04 04:22:55;;;;;;;7.37;5.30;;;7.80;99.90;;;;;;5128033;28;20162;-80
2021/05/04 04:25:22;;;;;;;4.20;3.80;;;7.70;99.90;;;;;;5127414;28;20398;-80
2021/05/04 04:27:47;;;;;;;7.47;5.10;;;7.80;99.90;;;;;;5108410;28;20398;-81
2021/05/04 04:30:15;;;;;;;5.93;5.03;;;7.90;99.90;;;;;;5110113;28;20434;-79
2021/05/04 04:32:42;;;;;;;4.90;4.37;;;7.80;99.90;;;;;;5110402;28;20182;-81
2021/05/04 04:35:09;;;;;;;9.80;7.10;;;7.80;99.90;;;;;;5128922;28;20388;-80
2021/05/04 04:37:35;;;;;;;7.20;4.83;;;7.90;99.90;;;;;;5128938;28;20876;-80
2021/05/04 04:40:01;;;;;;;6.97;5.10;;;7.90;99.90;;;;;;5105145;28;20499;-81
2021/05/04 04:42:27;;;;;;;6.60;5.13;;;8.10;99.90;;;;;;5108697;28;20749;-80
2021/05/04 04:44:53;;;;;;;6.33;4.53;;;8.00;99.90;;;;;;5110886;28;20278;-79
2021/05/04 04:47:21;;;;;;;4.97;4.00;;;8.20;99.90;;;;;;5096859;28;20165;-78
2021/05/04 04:49:47;;;;;;;6.67;5.47;;;8.10;99.90;;;;;;5130269;28;20392;-78
2021/05/04 04:52:13;;;;;;;5.53;5.03;;;8.40;99.90;;;;;;5109414;28;20451;-81
2021/05/04 04:54:39;;;;;;;4.80;4.37;;;8.30;99.90;;;;;;5087395;28;20190;-81
2021/05/04 04:57:05;;;;;;;4.87;4.40;;;8.40;99.90;;;;;;5122700;28;20909;-81
2021/05/04 04:59:32;;;;;;;5.90;4.53;;;8.30;99.90;;;;;;5122954;28;20201;-81
2021/05/04 05:01:58;;;;;;;7.90;6.20;;;8.40;99.90;;;;;;5121702;28;20861;-81
2021/05/04 05:04:24;;;;;;;4.83;4.53;;;8.40;99.90;;;;;;5086762;28;20395;-80
2021/05/04 05:06:51;;;;;;;5.80;5.07;;;8.50;99.90;;;;;;5103316;28;20173;-81
2021/05/04 05:09:16;;;;;;;6.50;5.43;;;8.50;99.90;;;;;;5121714;28;20431;-80
2021/05/04 05:11:42;;;;;;;7.47;4.47;;;8.60;99.90;;;;;;5103066;28;20390;-81
2021/05/04 05:14:08;;;;;;;4.67;4.13;;;8.60;99.90;;;;;;5103366;28;20479;-81
2021/05/04 05:16:36;;;;;;;9.07;5.10;;;8.80;99.90;;;;;;5103247;28;20158;-81
2021/05/04 05:19:02;;;;;;;6.40;5.50;;;8.70;99.90;;;;;;5121841;28;20400;-81
2021/05/04 05:21:30;;;;;;;4.60;4.07;;;8.80;99.90;;;;;;5103170;28;20392;-81
2021/05/04 05:23:59;;;;;;;6.20;4.83;;;8.80;99.90;;;;;;5120847;28;20416;-80
2021/05/04 05:26:25;;;;;;;7.77;5.70;;;8.90;99.90;;;;;;5104425;28;20387;-79
2021/05/04 05:28:54;;;;;;;6.20;4.30;;;8.90;99.90;;;;;;5096575;28;20428;-79
2021/05/04 05:31:21;;;;;;;5.00;3.70;;;9.00;99.90;;;;;;5125165;27;20418;-81
2021/05/04 05:33:48;;;;;;;7.20;4.47;;;9.00;99.90;;;;;;5141728;27;20561;-81
2021/05/04 05:36:14;;;;;;;7.40;5.47;;;9.00;99.90;;;;;;5123385;27;20411;-81
2021/05/04 05:38:42;;;;;;;7.07;4.73;;;9.00;99.90;;;;;;5122959;27;20391;-80
2021/05/04 05:41:09;;;;;;;7.47;4.80;;;9.30;99.90;;;;;;5105418;27;20410;-81
2021/05/04 05:43:35;;;;;;;5.90;5.30;;;9.30;99.90;;;;;;5106390;27;20785;-81
2021/05/04 05:46:02;;;;;;;6.03;4.30;;;9.20;99.90;;;;;;5142426;27;20451;-80
2021/05/04 05:48:28;;;;;;;4.73;4.13;;;9.30;99.90;;;;;;5140989;27;20402;-81
2021/05/04 05:50:54;;;;;;;6.70;4.20;;;9.30;99.90;;;;;;5122896;27;20867;-80
2021/05/04 05:53:21;;;;;;;5.60;4.37;;;9.40;99.90;;;;;;5097177;28;20432;-81
2021/05/04 05:55:47;;;;;;;4.90;4.17;;;9.60;99.90;;;;;;5114709;27;20187;-81
2021/05/04 05:58:13;;;;;;;4.80;4.30;;;9.50;99.90;;;;;;5119985;27;20455;-80
2021/05/04 06:00:43;;;;;;;7.47;4.57;;;9.70;99.90;;;;;;5122077;27;20763;-81
2021/05/04 06:03:08;;;;;;;6.83;4.30;;;9.70;99.90;;;;;;5123613;27;20387;-80
2021/05/04 06:05:34;;;;;;;4.33;3.93;;;9.70;99.90;;;;;;5141526;27;20394;-81
2021/05/04 06:08:01;;;;;;;5.70;4.77;;;9.90;99.90;;;;;;5130121;27;20212;-80
2021/05/04 06:10:27;;;;;;;5.50;4.43;;;9.90;99.90;;;;;;5141461;27;20162;-81
2021/05/04 06:12:58;;;;;;;6.47;4.50;;;9.90;99.90;;;;;;5122691;27;20468;-81
2021/05/04 06:15:24;;;;;;;5.07;4.57;;;9.90;99.90;;;;;;5122247;27;20398;-81
2021/05/04 06:17:50;;;;;;;4.37;3.97;;;10.10;99.90;;;;;;5122239;27;20402;-81
2021/05/04 06:20:16;;;;;;;5.67;5.00;;;10.10;99.90;;;;;;5140909;27;20164;-81
2021/05/04 06:22:42;;;;;;;3.80;3.50;;;10.20;99.90;;;;;;5102517;28;20174;-81
2021/05/04 06:25:08;;;;;;;5.20;4.70;;;10.20;99.90;;;;;;5086513;27;20415;-81
2021/05/04 06:27:34;;;;;;;5.27;4.70;;;10.30;99.90;;;;;;5138168;27;20828;-82
2021/05/04 06:30:00;;;;;;;7.40;4.27;;;10.30;99.90;;;;;;5139450;27;20426;-80
2021/05/04 06:32:27;;;;;;;4.57;4.17;;;10.40;99.90;;;;;;5128282;28;20205;-81
2021/05/04 06:34:53;;;;;;;4.43;4.00;;;10.50;99.90;;;;;;5140861;28;20176;-81
2021/05/04 06:37:19;;;;;;;3.50;3.27;;;10.50;99.90;;;;;;5106297;28;20406;-81
2021/05/04 06:39:48;;;;;;;4.00;3.60;;;10.60;99.90;;;;;;5146129;27;20414;-78
2021/05/04 06:42:16;;;;;;;4.10;3.77;;;10.60;99.90;;;;;;5122857;27;20202;-81
2021/05/04 06:44:42;;;;;;;3.77;3.37;;;10.70;99.90;;;;;;5138599;27;20438;-82
2021/05/04 06:47:08;;;;;;;14.03;3.50;;;10.80;99.90;;;;;;5153223;27;20418;-81
2021/05/04 06:49:33;;;;;;;5.90;3.87;;;10.80;99.90;;;;;;5145940;27;20194;-81
2021/05/04 06:51:59;;;;;;;4.10;3.70;;;10.90;99.90;;;;;;5131476;27;20182;-81
2021/05/04 06:54:25;;;;;;;4.43;4.03;;;11.00;99.90;;;;;;5107543;27;20230;-82
2021/05/04 06:56:51;;;;;;;4.33;3.70;;;11.10;99.90;;;;;;5114334;27;20184;-82
2021/05/04 06:59:17;;;;;;;5.30;4.40;;;11.20;99.90;;;;;;5118176;27;20273;-81
2021/05/04 07:01:43;;;;;;;6.37;3.40;;;11.30;99.90;;;;;;5126628;27;20900;-81
2021/05/04 07:04:09;;;;;;;3.33;3.03;;;11.10;99.90;;;;;;5144773;27;20165;-81
2021/05/04 07:06:34;;;;;;;3.87;3.00;;;11.30;99.90;;;;;;5106688;27;20584;-81
2021/05/04 07:09:00;;;;;;;4.23;3.83;;;11.40;99.90;;;;;;5126638;27;20479;-81
2021/05/04 07:11:26;;;;;;;4.50;3.43;;;11.40;99.90;;;;;;5124047;27;20161;-81
2021/05/04 07:13:52;;;;;;;7.87;3.50;;;11.40;99.90;;;;;;5143967;27;20556;-81
2021/05/04 07:16:18;;;;;;;4.30;3.40;;;11.40;99.90;;;;;;5127291;27;20172;-81
2021/05/04 07:18:44;;;;;;;5.27;3.60;;;11.50;99.90;;;;;;5128731;27;20161;-79
2021/05/04 07:21:10;;;;;;;3.20;2.60;;;11.70;99.90;;;;;;5150106;27;20165;-79
2021/05/04 07:23:37;;;;;;;4.40;3.90;;;11.60;99.90;;;;;;5150066;27;20413;-79
2021/05/04 07:26:04;;;;;;;3.50;3.20;;;11.70;99.90;;;;;;5131955;27;20394;-79
2021/05/04 07:28:30;;;;;;;3.73;3.43;;;11.90;99.90;;;;;;5124924;27;20441;-80
2021/05/04 07:30:56;;;;;;;3.30;3.00;;;12.00;99.90;;;;;;5106702;27;20490;-82
2021/05/04 07:33:22;;;;;;;3.30;3.00;;;12.00;99.90;;;;;;5138814;27;20800;-81
2021/05/04 07:36:08;;;;;;;3.83;3.43;;;12.10;99.90;;;;;;5104753;27;20545;-82
2021/05/04 07:38:34;;;;;;;3.43;3.13;;;12.20;99.90;;;;;;5113273;28;20432;-81
2021/05/04 07:41:00;;;;;;;3.93;3.50;;;12.00;99.90;;;;;;5118813;28;20453;-82
2021/05/04 07:43:26;;;;;;;3.53;3.17;;;12.10;99.90;;;;;;5112160;28;20456;-81
2021/05/04 07:45:52;;;;;;;4.07;3.67;;;12.00;99.90;;;;;;5122345;28;20080;-80
2021/05/04 07:48:18;;;;;;;3.50;3.20;;;12.20;99.90;;;;;;5087286;28;20185;-81
2021/05/04 07:50:46;;;;;;;5.87;3.27;;;12.20;99.90;;;;;;5105930;28;20418;-82
2021/05/04 07:53:13;;;;;;;3.43;3.13;;;12.20;99.90;;;;;;5096108;28;20477;-81
2021/05/04 07:55:42;;;;;;;3.20;2.90;;;12.20;99.90;;;;;;5111427;28;20833;-81
2021/05/04 07:58:08;;;;;;;3.37;3.10;;;12.20;99.90;;;;;;5120451;28;20420;-83
2021/05/04 08:00:34;;;;;;;2.73;2.57;;;12.30;99.90;;;;;;5104808;28;20416;-81
2021/05/04 08:03:00;;;;;;;4.63;2.87;;;12.30;99.90;;;;;;5103194;28;20503;-80
2021/05/04 08:05:26;;;;;;;2.67;2.43;;;12.30;99.90;;;;;;5105140;28;20231;-80
2021/05/04 08:07:52;;;;;;;3.33;3.03;;;12.30;99.90;;;;;;5117245;28;20698;-80
2021/05/04 08:10:18;;;;;;;3.50;3.20;;;12.30;99.90;;;;;;5130483;27;20496;-80
2021/05/04 08:12:46;;;;;;;2.93;2.63;;;12.40;99.90;;;;;;5134442;27;20556;-81
2021/05/04 08:15:17;;;;;;;3.37;3.10;;;12.40;99.90;;;;;;5125623;27;20410;-80
2021/05/04 08:17:49;;;;;;;2.83;2.63;;;12.50;99.90;;;;;;5123316;27;20963;-80
2021/05/04 08:20:15;;;;;;;3.33;3.00;;;12.50;99.90;;;;;;5121362;27;20848;-81
2021/05/04 08:22:41;;;;;;;2.93;2.73;;;12.50;99.90;;;;;;5106641;27;20406;-80
2021/05/04 08:25:08;;;;;;;4.50;3.00;;;12.60;99.90;;;;;;5120401;27;20883;-81
2021/05/04 08:27:33;;;;;;;8.37;3.63;;;12.60;99.90;;;;;;5123090;27;20169;-81
2021/05/04 08:29:59;;;;;;;4.10;3.80;;;12.70;99.90;;;;;;5141270;27;20419;-79
2021/05/04 08:32:25;;;;;;;2.73;2.20;;;12.60;99.90;;;;;;5119975;27;20205;-80
2021/05/04 08:34:51;;;;;;;3.53;2.83;;;12.60;99.90;;;;;;5120413;27;20172;-80
2021/05/04 08:37:16;;;;;;;3.00;2.20;;;12.70;99.90;;;;;;5141555;27;20188;-80
2021/05/04 08:39:42;;;;;;;3.67;3.03;;;12.70;99.90;;;;;;5120031;27;20166;-81
2021/05/04 08:42:08;;;;;;;3.50;3.13;;;12.70;99.90;;;;;;5123803;27;20165;-80
2021/05/04 08:44:34;;;;;;;6.00;3.07;;;12.70;99.90;;;;;;5122665;27;20209;-80
2021/05/04 08:47:02;;;;;;;3.17;2.97;;;12.80;99.90;;;;;;5141730;27;20216;-80
2021/05/04 08:49:28;;;;;;;4.57;2.93;;;12.80;99.90;;;;;;5141336;27;20410;-80
2021/05/04 08:51:55;;;;;;;4.27;2.57;;;12.90;99.90;;;;;;5089904;27;20403;-80
2021/05/04 08:54:21;;;;;;;4.07;3.17;;;12.80;99.90;;;;;;5133093;27;20415;-80
2021/05/04 08:56:47;;;;;;;5.70;2.57;;;12.90;99.90;;;;;;5109140;28;20481;-81
2021/05/04 08:59:13;;;;;;;3.10;2.80;;;12.90;99.90;;;;;;5129987;27;20462;-81
2021/05/04 09:01:39;;;;;;;4.07;3.67;;;12.80;99.90;;;;;;5134161;27;20256;-81
2021/05/04 09:04:23;;;;;;;4.63;4.23;;;12.90;99.90;;;;;;5128094;27;20476;-81
2021/05/04 09:06:51;;;;;;;2.93;2.63;;;13.00;99.90;;;;;;5122266;27;20179;-81
2021/05/04 09:09:37;;;;;;;4.60;3.00;;;12.90;99.90;;;;;;5141203;27;20442;-81
2021/05/04 09:12:09;;;;;;;3.40;3.03;;;12.90;99.90;;;;;;5122153;27;20413;-81
2021/05/04 09:14:49;;;;;;;8.83;3.77;;;12.80;99.90;;;;;;5137049;27;20422;-81
2021/05/04 09:17:26;;;;;;;5.10;3.30;;;13.00;99.90;;;;;;5121120;27;20425;-80
2021/05/04 09:20:21;;;;;;;3.30;3.07;;;13.10;99.90;;;;;;5123255;27;20403;-80
2021/05/04 09:22:47;;;;;;;3.20;3.00;;;13.10;99.90;;;;;;5136785;27;20406;-82
2021/05/04 09:25:34;;;;;;;7.75;3.60;;;13.20;99.90;;;;;;5120650;27;20401;-81
2021/05/04 09:28:04;;;;;;;3.73;3.43;;;13.30;99.90;;;;;;5116180;27;20177;-81
2021/05/04 09:30:31;;;;;;;5.27;4.00;;;13.40;99.90;;;;;;5131834;27;20423;-81
2021/05/04 09:33:13;;;;;;;4.20;3.80;;;13.40;99.90;;;;;;5140205;27;20994;-80
2021/05/04 09:35:39;;;;;;;12.93;3.60;;;13.50;99.90;;;;;;5118625;27;20848;-81
2021/05/04 09:38:08;;;;;;;3.13;2.80;;;13.60;99.90;;;;;;5119180;27;20429;-81
2021/05/04 09:40:37;;;;;;;3.10;2.77;;;13.50;99.90;;;;;;5128282;27;20431;-80
2021/05/04 09:43:17;;;;;;;2.70;2.50;;;13.70;99.90;;;;;;5146376;27;20427;-79
2021/05/04 09:45:50;;;;;;;2.80;2.57;;;13.80;99.90;;;;;;5107669;27;20498;-78
2021/05/04 09:48:21;;;;;;;6.20;2.57;;;14.10;99.90;;;;;;5144637;27;20435;-79
2021/05/04 09:51:07;;;;;;;3.07;2.30;;;14.40;99.90;;;;;;5133263;27;20410;-81
2021/05/04 09:53:42;;;;;;;6.30;2.30;;;14.50;99.90;;;;;;5123852;27;20470;-79
2021/05/04 09:56:10;;;;;;;4.77;2.27;;;14.70;99.90;;;;;;5141869;27;20739;-79
2021/05/04 09:58:42;;;;;;;2.50;2.33;;;14.90;99.90;;;;;;5101565;28;20404;-80
2021/05/04 10:01:11;;;;;;;2.57;2.37;;;14.80;99.90;;;;;;5131012;27;20407;-80
2021/05/04 10:03:43;;;;;;;4.50;2.27;;;14.90;99.90;;;;;;5140038;27;20836;-80
2021/05/04 10:06:11;;;;;;;3.50;2.60;;;15.00;99.90;;;;;;5134071;27;20407;-81
2021/05/04 10:08:40;;;;;;;2.10;2.00;;;15.20;99.90;;;;;;5140786;27;20438;-82
2021/05/04 10:11:08;;;;;;;4.60;2.37;;;15.10;99.90;;;;;;5139115;27;20530;-81
2021/05/04 10:13:37;;;;;;;2.10;2.00;;;15.20;99.90;;;;;;5119166;28;20446;-80
2021/05/04 10:16:04;;;;;;;2.50;2.20;;;15.40;99.90;;;;;;5099491;27;20466;-81
2021/05/04 10:18:31;;;;;;;1.77;1.67;;;15.30;99.20;;;;;;5139251;27;20185;-81
2021/05/04 10:20:59;;;;;;;2.40;2.20;;;15.20;98.60;;;;;;5133264;27;20425;-81
2021/05/04 10:23:26;;;;;;;2.70;2.30;;;15.30;97.10;;;;;;5133110;27;20434;-81
2021/05/04 10:25:57;;;;;;;2.77;2.40;;;15.40;95.20;;;;;;5120899;28;20414;-81
2021/05/04 10:28:32;;;;;;;2.70;2.23;;;15.40;92.40;;;;;;5061208;28;20408;-81
2021/05/04 10:31:02;;;;;;;4.57;2.60;;;15.40;92.20;;;;;;5096175;28;20482;-81
2021/05/04 10:33:31;;;;;;;2.47;1.90;;;15.50;92.00;;;;;;5081287;28;21109;-81
2021/05/04 10:35:57;;;;;;;2.73;2.50;;;15.40;92.60;;;;;;5081066;28;20439;-81
2021/05/04 10:38:26;;;;;;;3.03;2.73;;;15.50;92.70;;;;;;5065331;28;20435;-80
2021/05/04 10:41:05;;;;;;;7.53;2.37;;;15.50;91.90;;;;;;5080895;28;20508;-82
2021/05/04 10:43:34;;;;;;;3.73;2.47;;;15.50;92.70;;;;;;5092027;28;20481;-81
2021/05/04 10:46:00;;;;;;;3.20;2.90;;;15.60;92.90;;;;;;5060508;28;20413;-81
2021/05/04 10:48:45;;;;;;;2.40;2.07;;;15.70;92.50;;;;;;5077466;28;20421;-82
2021/05/04 10:51:15;;;;;;;4.07;2.70;;;15.70;94.30;;;;;;5057499;28;20409;-80
2021/05/04 10:54:02;;;;;;;19.77;2.87;;;15.80;92.40;;;;;;5062006;28;20460;-81
2021/05/04 10:56:38;;;;;;;5.23;2.50;;;16.00;93.30;;;;;;5062863;28;20437;-82
2021/05/04 10:59:06;;;;;;;2.47;2.27;;;16.00;93.20;;;;;;5095391;28;20411;-81
2021/05/04 11:01:32;;;;;;;4.53;2.27;;;16.10;92.20;;;;;;5110928;28;20608;-81
2021/05/04 11:04:01;;;;;;;2.50;2.30;;;16.10;91.70;;;;;;5096564;28;20423;-80
2021/05/04 11:06:47;;;;;;;2.60;2.20;;;15.80;92.00;;;;;;5114516;28;20416;-81
2021/05/04 11:09:14;;;;;;;7.70;1.97;;;15.70;92.70;;;;;;5088173;28;20415;-79
2021/05/04 11:11:43;;;;;;;3.77;2.07;;;15.80;93.10;;;;;;5107616;28;20494;-81
2021/05/04 11:14:23;;;;;;;5.07;2.60;;;15.80;93.60;;;;;;5119800;28;20455;-82
2021/05/04 11:17:03;;;;;;;6.10;2.97;;;15.50;93.60;;;;;;5118488;28;20425;-82
2021/05/04 11:19:32;;;;;;;2.10;1.97;;;15.50;93.40;;;;;;5110477;28;20434;-82
2021/05/04 11:22:07;;;;;;;2.40;2.17;;;15.30;94.30;;;;;;5082591;28;20426;-79
2021/05/04 11:24:39;;;;;;;3.83;2.30;;;15.10;95.60;;;;;;5081051;28;20425;-81
2021/05/04 11:27:22;;;;;;;2.43;2.30;;;15.10;95.60;;;;;;5101080;28;20434;-81
2021/05/04 11:29:51;;;;;;;3.43;2.10;;;15.00;96.90;;;;;;5121251;28;20456;-81
2021/05/04 11:32:36;;;;;;;9.53;2.27;;;15.00;97.50;;;;;;5104046;28;20523;-81
2021/05/04 11:35:04;;;;;;;8.33;2.67;;;14.90;99.40;;;;;;5115522;28;20419;-82
2021/05/04 11:37:39;;;;;;;2.10;1.77;;;14.80;99.90;;;;;;5109119;28;20467;-80
2021/05/04 11:40:21;;;;;;;1.47;1.37;;;14.60;99.90;;;;;;5101903;28;20570;-81
2021/05/04 11:42:50;;;;;;;3.60;1.77;;;14.30;99.90;;;;;;5121671;28;20411;-82
2021/05/04 11:45:20;;;;;;;1.90;1.73;;;14.30;99.90;;;;;;5103808;28;21041;-82
2021/05/04 11:47:49;;;;;;;2.40;2.20;;;14.40;99.90;;;;;;5087263;28;20481;-80
2021/05/04 11:50:24;;;;;;;3.00;1.80;;;14.30;99.90;;;;;;5101248;28;20759;-81
2021/05/04 11:52:52;;;;;;;2.97;2.17;;;14.50;99.90;;;;;;5053047;28;20464;-81
2021/05/04 11:55:23;;;;;;;3.00;2.20;;;14.40;99.90;;;;;;5073195;28;20422;-81
2021/05/04 11:57:56;;;;;;;3.23;2.93;;;14.20;99.90;;;;;;5077907;28;20437;-81
2021/05/04 12:00:24;;;;;;;2.50;2.33;;;14.20;99.90;;;;;;5061732;28;20789;-81
2021/05/04 12:02:50;;;;;;;3.23;2.97;;;14.10;99.90;;;;;;5055674;28;20525;-81
2021/05/04 12:05:27;;;;;;;2.27;2.07;;;14.10;99.90;;;;;;5078468;28;20785;-81
2021/05/04 12:07:54;;;;;;;1.70;1.60;;;14.00;99.90;;;;;;5029870;28;20808;-81
2021/05/04 12:10:23;;;;;;;2.70;2.07;;;13.80;99.90;;;;;;5036671;28;20420;-81
2021/05/04 12:12:52;;;;;;;2.07;1.93;;;13.90;99.90;;;;;;5073180;28;20541;-81
2021/05/04 12:15:20;;;;;;;1.73;1.63;;;13.80;99.90;;;;;;5078905;28;20413;-82
2021/05/04 12:17:59;;;;;;;2.80;2.20;;;13.70;99.90;;;;;;5078129;28;20446;-81
2021/05/04 12:20:30;;;;;;;3.00;2.13;;;13.50;99.90;;;;;;5076256;28;20202;-81
2021/05/04 12:23:00;;;;;;;1.70;1.60;;;13.50;99.90;;;;;;5085350;28;20770;-81
2021/05/04 12:25:39;;;;;;;1.80;1.67;;;13.70;99.90;;;;;;5105953;28;20814;-81
2021/05/04 12:28:07;;;;;;;1.90;1.73;;;13.60;99.90;;;;;;5070262;28;20422;-81
2021/05/04 12:30:33;;;;;;;2.90;1.50;;;13.70;99.90;;;;;;5121649;28;20415;-81
2021/05/04 12:32:59;;;;;;;2.70;1.63;;;13.50;99.90;;;;;;5118648;28;20443;-80
2021/05/04 12:35:30;;;;;;;2.60;1.97;;;13.70;99.90;;;;;;5118313;28;20439;-80
2021/05/04 12:38:19;;;;;;;5.43;2.10;;;13.60;99.90;;;;;;5122027;28;20424;-81
2021/05/04 12:41:08;;;;;;;4.50;3.53;;;13.70;99.90;;;;;;5108768;28;20968;-80
2021/05/04 12:43:39;;;;;;;2.33;1.40;;;13.80;99.90;;;;;;5093294;28;20463;-79
2021/05/04 12:46:09;;;;;;;1.40;1.30;;;13.80;99.90;;;;;;5105673;28;20399;-80
2021/05/04 12:48:37;;;;;;;1.80;1.70;;;13.80;99.90;;;;;;5113375;28;20395;-81
2021/05/04 12:51:15;;;;;;;4.50;1.37;;;13.90;99.90;;;;;;5129166;28;20423;-81
2021/05/04 12:53:46;;;;;;;2.80;1.30;;;13.70;99.90;;;;;;5109501;28;20523;-82
2021/05/04 12:56:18;;;;;;;2.00;1.60;;;13.80;99.90;;;;;;5102864;28;20434;-82